METAR Data
IDs: Format: Raw Decoded Include TAF

Data at: 2309 UTC 01 Mar 2021

METAR for:KHLB (Batesville Arpt, IN, US)
Text:KHLB 012255Z AUTO 32008G17KT 300V020 10SM SCT050 04/M06 A3023 RMK A01
Temperature: 4.0°C ( 39°F)
Dewpoint: -6.0°C ( 21°F) [RH = 48%]
Pressure (altimeter):30.23 inches Hg (1023.8 mb)
Winds:from the NW (320 degrees) at 9 MPH (8 knots; 4.1 m/s) gusting to 20 MPH (17 knots; 8.7 m/s)
Visibility:10 or more sm (16+ km)
Ceiling:at least 12,000 feet AGL
Clouds: scattered clouds at 5000 feet AGL
QC Flag:automated observation with no human augmentation
Text:KHLB 012235Z AUTO 31007G17KT 10SM FEW055 05/M07 A3023 RMK A01
Temperature: 5.0°C ( 41°F)
Dewpoint: -7.0°C ( 19°F) [RH = 41%]
Pressure (altimeter):30.23 inches Hg (1023.8 mb)
Winds:from the NW (310 degrees) at 8 MPH (7 knots; 3.6 m/s) gusting to 20 MPH (17 knots; 8.7 m/s)
Visibility:10 or more sm (16+ km)
Ceiling:at least 12,000 feet AGL
Clouds: few clouds at 5500 feet AGL
QC Flag:automated observation with no human augmentation
Text:KHLB 012215Z AUTO 33009G19KT 10SM FEW060 05/M07 A3022 RMK A01
Temperature: 5.0°C ( 41°F)
Dewpoint: -7.0°C ( 19°F) [RH = 41%]
Pressure (altimeter):30.22 inches Hg (1023.5 mb)
Winds:from the NNW (330 degrees) at 10 MPH (9 knots; 4.6 m/s) gusting to 22 MPH (19 knots; 9.8 m/s)
Visibility:10 or more sm (16+ km)
Ceiling:at least 12,000 feet AGL
Clouds: few clouds at 6000 feet AGL
QC Flag:automated observation with no human augmentation
Text:KHLB 012155Z AUTO 29007G14KT 10SM CLR 05/M07 A3021 RMK A01
Temperature: 5.0°C ( 41°F)
Dewpoint: -7.0°C ( 19°F) [RH = 41%]
Pressure (altimeter):30.21 inches Hg (1023.1 mb)
Winds:from the WNW (290 degrees) at 8 MPH (7 knots; 3.6 m/s) gusting to 16 MPH (14 knots; 7.2 m/s)
Visibility:10 or more sm (16+ km)
Ceiling:at least 12,000 feet AGL
Clouds:sky clear below 12,000 feet AGL
QC Flag:automated observation with no human augmentation
Text:KHLB 012135Z AUTO 30010G16KT 250V320 10SM CLR 06/M07 A3020 RMK A01
Temperature: 6.0°C ( 43°F)
Dewpoint: -7.0°C ( 19°F) [RH = 39%]
Pressure (altimeter):30.20 inches Hg (1022.8 mb)
Winds:from the WNW (300 degrees) at 12 MPH (10 knots; 5.1 m/s) gusting to 18 MPH (16 knots; 8.2 m/s)
Visibility:10 or more sm (16+ km)
Ceiling:at least 12,000 feet AGL
Clouds:sky clear below 12,000 feet AGL
QC Flag:automated observation with no human augmentation
Text:KHLB 012115Z AUTO 30007G17KT 250V320 10SM CLR 06/M07 A3021 RMK A01
Temperature: 6.0°C ( 43°F)
Dewpoint: -7.0°C ( 19°F) [RH = 39%]
Pressure (altimeter):30.21 inches Hg (1023.1 mb)
Winds:from the WNW (300 degrees) at 8 MPH (7 knots; 3.6 m/s) gusting to 20 MPH (17 knots; 8.7 m/s)
Visibility:10 or more sm (16+ km)
Ceiling:at least 12,000 feet AGL
Clouds:sky clear below 12,000 feet AGL
QC Flag:automated observation with no human augmentation
Text:KHLB 012055Z AUTO 31011G23KT 270V350 10SM CLR 06/M07 A3021 RMK A01
Temperature: 6.0°C ( 43°F)
Dewpoint: -7.0°C ( 19°F) [RH = 39%]
Pressure (altimeter):30.21 inches Hg (1023.1 mb)
Winds:from the NW (310 degrees) at 13 MPH (11 knots; 5.7 m/s) gusting to 26 MPH (23 knots; 11.8 m/s)
Visibility:10 or more sm (16+ km)
Ceiling:at least 12,000 feet AGL
Clouds:sky clear below 12,000 feet AGL
QC Flag:automated observation with no human augmentation
Text:KHLB 012035Z AUTO 30007G14KT 260V330 10SM CLR 06/M05 A3021 RMK A01
Temperature: 6.0°C ( 43°F)
Dewpoint: -5.0°C ( 23°F) [RH = 45%]
Pressure (altimeter):30.21 inches Hg (1023.1 mb)
Winds:from the WNW (300 degrees) at 8 MPH (7 knots; 3.6 m/s) gusting to 16 MPH (14 knots; 7.2 m/s)
Visibility:10 or more sm (16+ km)
Ceiling:at least 12,000 feet AGL
Clouds:sky clear below 12,000 feet AGL
QC Flag:automated observation with no human augmentation
Text:KHLB 012015Z AUTO 29010G16KT 250V330 10SM CLR 07/M05 A3019 RMK A01
Temperature: 7.0°C ( 45°F)
Dewpoint: -5.0°C ( 23°F) [RH = 42%]
Pressure (altimeter):30.19 inches Hg (1022.4 mb)
Winds:from the WNW (290 degrees) at 12 MPH (10 knots; 5.1 m/s) gusting to 18 MPH (16 knots; 8.2 m/s)
Visibility:10 or more sm (16+ km)
Ceiling:at least 12,000 feet AGL
Clouds:sky clear below 12,000 feet AGL
QC Flag:automated observation with no human augmentation
Text:KHLB 011955Z AUTO 30010G22KT 260V340 10SM CLR 06/M07 A3018 RMK A01
Temperature: 6.0°C ( 43°F)
Dewpoint: -7.0°C ( 19°F) [RH = 39%]
Pressure (altimeter):30.18 inches Hg (1022.1 mb)
Winds:from the WNW (300 degrees) at 12 MPH (10 knots; 5.1 m/s) gusting to 25 MPH (22 knots; 11.3 m/s)
Visibility:10 or more sm (16+ km)
Ceiling:at least 12,000 feet AGL
Clouds:sky clear below 12,000 feet AGL
QC Flag:automated observation with no human augmentation
Text:KHLB 011935Z AUTO 30011G22KT 260V330 10SM CLR 06/M07 A3019 RMK A01
Temperature: 6.0°C ( 43°F)
Dewpoint: -7.0°C ( 19°F) [RH = 39%]
Pressure (altimeter):30.19 inches Hg (1022.4 mb)
Winds:from the WNW (300 degrees) at 13 MPH (11 knots; 5.7 m/s) gusting to 25 MPH (22 knots; 11.3 m/s)
Visibility:10 or more sm (16+ km)
Ceiling:at least 12,000 feet AGL
Clouds:sky clear below 12,000 feet AGL
QC Flag:automated observation with no human augmentation
Text:KHLB 011915Z AUTO 32008G15KT 10SM CLR 06/M05 A3019 RMK A01
Temperature: 6.0°C ( 43°F)
Dewpoint: -5.0°C ( 23°F) [RH = 45%]
Pressure (altimeter):30.19 inches Hg (1022.4 mb)
Winds:from the NW (320 degrees) at 9 MPH (8 knots; 4.1 m/s) gusting to 17 MPH (15 knots; 7.7 m/s)
Visibility:10 or more sm (16+ km)
Ceiling:at least 12,000 feet AGL
Clouds:sky clear below 12,000 feet AGL
QC Flag:automated observation with no human augmentation
Text:KHLB 011855Z AUTO 29009G16KT 220V310 10SM CLR 05/M04 A3019 RMK A01
Temperature: 5.0°C ( 41°F)
Dewpoint: -4.0°C ( 25°F) [RH = 52%]
Pressure (altimeter):30.19 inches Hg (1022.4 mb)
Winds:from the WNW (290 degrees) at 10 MPH (9 knots; 4.6 m/s) gusting to 18 MPH (16 knots; 8.2 m/s)
Visibility:10 or more sm (16+ km)
Ceiling:at least 12,000 feet AGL
Clouds:sky clear below 12,000 feet AGL
QC Flag:automated observation with no human augmentation
Text:KHLB 011835Z AUTO VRB06G13KT 10SM CLR 05/M03 A3020 RMK A01
Temperature: 5.0°C ( 41°F)
Dewpoint: -3.0°C ( 27°F) [RH = 56%]
Pressure (altimeter):30.20 inches Hg (1022.8 mb)
Winds:variable direction winds at 7 MPH (6 knots; 3.1 m/s) gusting to 15 MPH (13 knots; 6.7 m/s)
Visibility:10 or more sm (16+ km)
Ceiling:at least 12,000 feet AGL
Clouds:sky clear below 12,000 feet AGL
QC Flag:automated observation with no human augmentation
Text:KHLB 011815Z AUTO 31006G16KT 10SM CLR 05/M04 A3019 RMK A01
Temperature: 5.0°C ( 41°F)
Dewpoint: -4.0°C ( 25°F) [RH = 52%]
Pressure (altimeter):30.19 inches Hg (1022.4 mb)
Winds:from the NW (310 degrees) at 7 MPH (6 knots; 3.1 m/s) gusting to 18 MPH (16 knots; 8.2 m/s)
Visibility:10 or more sm (16+ km)
Ceiling:at least 12,000 feet AGL
Clouds:sky clear below 12,000 feet AGL
QC Flag:automated observation with no human augmentation
Text:KHLB 011755Z AUTO 27011KT 10SM CLR 05/M03 A3020 RMK A01
Temperature: 5.0°C ( 41°F)
Dewpoint: -3.0°C ( 27°F) [RH = 56%]
Pressure (altimeter):30.20 inches Hg (1022.8 mb)
Winds:from the W (270 degrees) at 13 MPH (11 knots; 5.7 m/s)
Visibility:10 or more sm (16+ km)
Ceiling:at least 12,000 feet AGL
Clouds:sky clear below 12,000 feet AGL
QC Flag:automated observation with no human augmentation
Text:KHLB 011735Z AUTO 27007G13KT 10SM CLR 05/M03 A3020 RMK A01
Temperature: 5.0°C ( 41°F)
Dewpoint: -3.0°C ( 27°F) [RH = 56%]
Pressure (altimeter):30.20 inches Hg (1022.8 mb)
Winds:from the W (270 degrees) at 8 MPH (7 knots; 3.6 m/s) gusting to 15 MPH (13 knots; 6.7 m/s)
Visibility:10 or more sm (16+ km)
Ceiling:at least 12,000 feet AGL
Clouds:sky clear below 12,000 feet AGL
QC Flag:automated observation with no human augmentation
Text:KHLB 011715Z AUTO 31008G15KT 10SM CLR 04/M02 A3017 RMK A01
Temperature: 4.0°C ( 39°F)
Dewpoint: -2.0°C ( 28°F) [RH = 65%]
Pressure (altimeter):30.17 inches Hg (1021.8 mb)
Winds:from the NW (310 degrees) at 9 MPH (8 knots; 4.1 m/s) gusting to 17 MPH (15 knots; 7.7 m/s)
Visibility:10 or more sm (16+ km)
Ceiling:at least 12,000 feet AGL
Clouds:sky clear below 12,000 feet AGL
QC Flag:automated observation with no human augmentation
Text:KHLB 011655Z AUTO 31009KT 10SM CLR 04/M01 A3016 RMK A01
Temperature: 4.0°C ( 39°F)
Dewpoint: -1.0°C ( 30°F) [RH = 70%]
Pressure (altimeter):30.16 inches Hg (1021.4 mb)
Winds:from the NW (310 degrees) at 10 MPH (9 knots; 4.6 m/s)
Visibility:10 or more sm (16+ km)
Ceiling:at least 12,000 feet AGL
Clouds:sky clear below 12,000 feet AGL
QC Flag:automated observation with no human augmentation
Text:KHLB 011635Z AUTO VRB06G14KT 10SM FEW021 03/M01 A3016 RMK A01
Temperature: 3.0°C ( 37°F)
Dewpoint: -1.0°C ( 30°F) [RH = 75%]
Pressure (altimeter):30.16 inches Hg (1021.4 mb)
Winds:variable direction winds at 7 MPH (6 knots; 3.1 m/s) gusting to 16 MPH (14 knots; 7.2 m/s)
Visibility:10 or more sm (16+ km)
Ceiling:at least 12,000 feet AGL
Clouds: few clouds at 2100 feet AGL
QC Flag:automated observation with no human augmentation
Text:KHLB 011615Z AUTO 30007KT 250V340 10SM BKN021 03/M01 A3015 RMK A01
Temperature: 3.0°C ( 37°F)
Dewpoint: -1.0°C ( 30°F) [RH = 75%]
Pressure (altimeter):30.15 inches Hg (1021.1 mb)
Winds:from the WNW (300 degrees) at 8 MPH (7 knots; 3.6 m/s)
Visibility:10 or more sm (16+ km)
Ceiling:2100 feet AGL
Clouds: broken clouds at 2100 feet AGL
QC Flag:automated observation with no human augmentation
Text:KHLB 011555Z AUTO VRB06G12KT 10SM BKN019 03/M00 A3014 RMK A01
Temperature: 3.0°C ( 37°F)
Dewpoint: 0.0°C ( 32°F) [RH = 81%]
Pressure (altimeter):30.14 inches Hg (1020.7 mb)
Winds:variable direction winds at 7 MPH (6 knots; 3.1 m/s) gusting to 14 MPH (12 knots; 6.2 m/s)
Visibility:10 or more sm (16+ km)
Ceiling:1900 feet AGL
Clouds: broken clouds at 1900 feet AGL
QC Flag:automated observation with no human augmentation
Text:KHLB 011535Z AUTO 29010G15KT 250V330 10SM BKN016 02/M00 A3013 RMK A01
Temperature: 2.0°C ( 36°F)
Dewpoint: 0.0°C ( 32°F) [RH = 87%]
Pressure (altimeter):30.13 inches Hg (1020.4 mb)
Winds:from the WNW (290 degrees) at 12 MPH (10 knots; 5.1 m/s) gusting to 17 MPH (15 knots; 7.7 m/s)
Visibility:10 or more sm (16+ km)
Ceiling:1600 feet AGL
Clouds: broken clouds at 1600 feet AGL
QC Flag:automated observation with no human augmentation
Text:KHLB 011515Z AUTO 29008KT 250V340 10SM BKN015 02/01 A3015 RMK A01
Temperature: 2.0°C ( 36°F)
Dewpoint: 1.0°C ( 34°F) [RH = 93%]
Pressure (altimeter):30.15 inches Hg (1021.1 mb)
Winds:from the WNW (290 degrees) at 9 MPH (8 knots; 4.1 m/s)
Visibility:10 or more sm (16+ km)
Ceiling:1500 feet AGL
Clouds: broken clouds at 1500 feet AGL
QC Flag:automated observation with no human augmentation
Text:KHLB 011455Z AUTO VRB05G13KT 10SM FEW014 02/00 A3013 RMK A01
Temperature: 2.0°C ( 36°F)
Dewpoint: 0.0°C ( 32°F) [RH = 87%]
Pressure (altimeter):30.13 inches Hg (1020.4 mb)
Winds:variable direction winds at 6 MPH (5 knots; 2.6 m/s) gusting to 15 MPH (13 knots; 6.7 m/s)
Visibility:10 or more sm (16+ km)
Ceiling:at least 12,000 feet AGL
Clouds: few clouds at 1400 feet AGL
QC Flag:automated observation with no human augmentation
Text:KHLB 011435Z AUTO 30008G13KT 250V340 10SM SCT013 02/00 A3012 RMK A01
Temperature: 2.0°C ( 36°F)
Dewpoint: 0.0°C ( 32°F) [RH = 87%]
Pressure (altimeter):30.12 inches Hg (1020.1 mb)
Winds:from the WNW (300 degrees) at 9 MPH (8 knots; 4.1 m/s) gusting to 15 MPH (13 knots; 6.7 m/s)
Visibility:10 or more sm (16+ km)
Ceiling:at least 12,000 feet AGL
Clouds: scattered clouds at 1300 feet AGL
QC Flag:automated observation with no human augmentation
Text:KHLB 011415Z AUTO VRB06G13KT 10SM SCT013 01/00 A3012 RMK A01
Temperature: 1.0°C ( 34°F)
Dewpoint: 0.0°C ( 32°F) [RH = 93%]
Pressure (altimeter):30.12 inches Hg (1020.1 mb)
Winds:variable direction winds at 7 MPH (6 knots; 3.1 m/s) gusting to 15 MPH (13 knots; 6.7 m/s)
Visibility:10 or more sm (16+ km)
Ceiling:at least 12,000 feet AGL
Clouds: scattered clouds at 1300 feet AGL
QC Flag:automated observation with no human augmentation
Text:KHLB 011355Z AUTO VRB03KT 10SM OVC013 00/00 A3011 RMK A01
Temperature: 0.0°C ( 32°F)
Dewpoint: 0.0°C ( 32°F) [RH = 100%]
Pressure (altimeter):30.11 inches Hg (1019.7 mb)
Winds:variable direction winds at 3 MPH (3 knots; 1.5 m/s)
Visibility:10 or more sm (16+ km)
Ceiling:1300 feet AGL
Clouds: overcast cloud deck at 1300 feet AGL
QC Flag:automated observation with no human augmentation
Text:KHLB 011335Z AUTO VRB04G11KT 10SM OVC014 01/00 A3011 RMK A01
Temperature: 1.0°C ( 34°F)
Dewpoint: 0.0°C ( 32°F) [RH = 93%]
Pressure (altimeter):30.11 inches Hg (1019.7 mb)
Winds:variable direction winds at 5 MPH (4 knots; 2.1 m/s) gusting to 13 MPH (11 knots; 5.7 m/s)
Visibility:10 or more sm (16+ km)
Ceiling:1400 feet AGL
Clouds: overcast cloud deck at 1400 feet AGL
QC Flag:automated observation with no human augmentation
Text:KHLB 011315Z AUTO 32008G15KT 290V010 10SM OVC014 01/01 A3010 RMK A01
Temperature: 1.0°C ( 34°F)
Dewpoint: 1.0°C ( 34°F) [RH = 100%]
Pressure (altimeter):30.10 inches Hg (1019.4 mb)
Winds:from the NW (320 degrees) at 9 MPH (8 knots; 4.1 m/s) gusting to 17 MPH (15 knots; 7.7 m/s)
Visibility:10 or more sm (16+ km)
Ceiling:1400 feet AGL
Clouds: overcast cloud deck at 1400 feet AGL
QC Flag:automated observation with no human augmentation
Text:KHLB 011255Z AUTO 32007G14KT 10SM OVC014 01/01 A3008 RMK A01
Temperature: 1.0°C ( 34°F)
Dewpoint: 1.0°C ( 34°F) [RH = 100%]
Pressure (altimeter):30.08 inches Hg (1018.7 mb)
Winds:from the NW (320 degrees) at 8 MPH (7 knots; 3.6 m/s) gusting to 16 MPH (14 knots; 7.2 m/s)
Visibility:10 or more sm (16+ km)
Ceiling:1400 feet AGL
Clouds: overcast cloud deck at 1400 feet AGL
QC Flag:automated observation with no human augmentation
Text:KHLB 011235Z AUTO 31008G16KT 260V350 10SM OVC015 01/01 A3007 RMK A01
Temperature: 1.0°C ( 34°F)
Dewpoint: 1.0°C ( 34°F) [RH = 100%]
Pressure (altimeter):30.07 inches Hg (1018.4 mb)
Winds:from the NW (310 degrees) at 9 MPH (8 knots; 4.1 m/s) gusting to 18 MPH (16 knots; 8.2 m/s)
Visibility:10 or more sm (16+ km)
Ceiling:1500 feet AGL
Clouds: overcast cloud deck at 1500 feet AGL
QC Flag:automated observation with no human augmentation
Text:KHLB 011215Z AUTO 32007G12KT 280V340 10SM OVC014 02/02 A3005 RMK A01
Temperature: 2.0°C ( 36°F)
Dewpoint: 2.0°C ( 36°F) [RH = 100%]
Pressure (altimeter):30.05 inches Hg (1017.7 mb)
Winds:from the NW (320 degrees) at 8 MPH (7 knots; 3.6 m/s) gusting to 14 MPH (12 knots; 6.2 m/s)
Visibility:10 or more sm (16+ km)
Ceiling:1400 feet AGL
Clouds: overcast cloud deck at 1400 feet AGL
QC Flag:automated observation with no human augmentation
Text:KHLB 011155Z AUTO 30007G14KT 10SM OVC015 02/02 A3004 RMK A01
Temperature: 2.0°C ( 36°F)
Dewpoint: 2.0°C ( 36°F) [RH = 100%]
Pressure (altimeter):30.04 inches Hg (1017.4 mb)
Winds:from the WNW (300 degrees) at 8 MPH (7 knots; 3.6 m/s) gusting to 16 MPH (14 knots; 7.2 m/s)
Visibility:10 or more sm (16+ km)
Ceiling:1500 feet AGL
Clouds: overcast cloud deck at 1500 feet AGL
QC Flag:automated observation with no human augmentation
Text:KHLB 011135Z AUTO 30008G14KT 280V010 10SM OVC015 02/02 A3004 RMK A01
Temperature: 2.0°C ( 36°F)
Dewpoint: 2.0°C ( 36°F) [RH = 100%]
Pressure (altimeter):30.04 inches Hg (1017.4 mb)
Winds:from the WNW (300 degrees) at 9 MPH (8 knots; 4.1 m/s) gusting to 16 MPH (14 knots; 7.2 m/s)
Visibility:10 or more sm (16+ km)
Ceiling:1500 feet AGL
Clouds: overcast cloud deck at 1500 feet AGL
QC Flag:automated observation with no human augmentation
Text:KHLB 011115Z AUTO 32006KT 10SM OVC015 02/02 A3004 RMK A01
Temperature: 2.0°C ( 36°F)
Dewpoint: 2.0°C ( 36°F) [RH = 100%]
Pressure (altimeter):30.04 inches Hg (1017.4 mb)
Winds:from the NW (320 degrees) at 7 MPH (6 knots; 3.1 m/s)
Visibility:10 or more sm (16+ km)
Ceiling:1500 feet AGL
Clouds: overcast cloud deck at 1500 feet AGL
QC Flag:automated observation with no human augmentation
Text:KHLB 011055Z AUTO VRB04G11KT 10SM OVC016 02/02 A3003 RMK A01
Temperature: 2.0°C ( 36°F)
Dewpoint: 2.0°C ( 36°F) [RH = 100%]
Pressure (altimeter):30.03 inches Hg (1017.0 mb)
Winds:variable direction winds at 5 MPH (4 knots; 2.1 m/s) gusting to 13 MPH (11 knots; 5.7 m/s)
Visibility:10 or more sm (16+ km)
Ceiling:1600 feet AGL
Clouds: overcast cloud deck at 1600 feet AGL
QC Flag:automated observation with no human augmentation
Text:KHLB 011035Z AUTO 29009KT 240V320 10SM OVC018 02/02 A3002 RMK A01
Temperature: 2.0°C ( 36°F)
Dewpoint: 2.0°C ( 36°F) [RH = 100%]
Pressure (altimeter):30.02 inches Hg (1016.7 mb)
Winds:from the WNW (290 degrees) at 10 MPH (9 knots; 4.6 m/s)
Visibility:10 or more sm (16+ km)
Ceiling:1800 feet AGL
Clouds: overcast cloud deck at 1800 feet AGL
QC Flag:automated observation with no human augmentation
Text:KHLB 011015Z AUTO 30007G14KT 260V340 10SM OVC018 03/02 A3001 RMK A01
Temperature: 3.0°C ( 37°F)
Dewpoint: 2.0°C ( 36°F) [RH = 93%]
Pressure (altimeter):30.01 inches Hg (1016.3 mb)
Winds:from the WNW (300 degrees) at 8 MPH (7 knots; 3.6 m/s) gusting to 16 MPH (14 knots; 7.2 m/s)
Visibility:10 or more sm (16+ km)
Ceiling:1800 feet AGL
Clouds: overcast cloud deck at 1800 feet AGL
QC Flag:automated observation with no human augmentation
Text:KHLB 010955Z AUTO 29006G14KT 10SM OVC017 03/02 A3000 RMK A01
Temperature: 3.0°C ( 37°F)
Dewpoint: 2.0°C ( 36°F) [RH = 93%]
Pressure (altimeter):30.00 inches Hg (1016.0 mb)
Winds:from the WNW (290 degrees) at 7 MPH (6 knots; 3.1 m/s) gusting to 16 MPH (14 knots; 7.2 m/s)
Visibility:10 or more sm (16+ km)
Ceiling:1700 feet AGL
Clouds: overcast cloud deck at 1700 feet AGL
QC Flag:automated observation with no human augmentation
Text:KHLB 010935Z AUTO VRB05G12KT 10SM OVC017 03/02 A2998 RMK A01
Temperature: 3.0°C ( 37°F)
Dewpoint: 2.0°C ( 36°F) [RH = 93%]
Pressure (altimeter):29.98 inches Hg (1015.3 mb)
Winds:variable direction winds at 6 MPH (5 knots; 2.6 m/s) gusting to 14 MPH (12 knots; 6.2 m/s)
Visibility:10 or more sm (16+ km)
Ceiling:1700 feet AGL
Clouds: overcast cloud deck at 1700 feet AGL
QC Flag:automated observation with no human augmentation
Text:KHLB 010915Z AUTO 31009G15KT 10SM OVC018 03/02 A2997 RMK A01
Temperature: 3.0°C ( 37°F)
Dewpoint: 2.0°C ( 36°F) [RH = 93%]
Pressure (altimeter):29.97 inches Hg (1015.0 mb)
Winds:from the NW (310 degrees) at 10 MPH (9 knots; 4.6 m/s) gusting to 17 MPH (15 knots; 7.7 m/s)
Visibility:10 or more sm (16+ km)
Ceiling:1800 feet AGL
Clouds: overcast cloud deck at 1800 feet AGL
QC Flag:automated observation with no human augmentation
Text:KHLB 010855Z AUTO 31007G17KT 280V350 10SM OVC017 03/03 A2997 RMK A01
Temperature: 3.0°C ( 37°F)
Dewpoint: 3.0°C ( 37°F) [RH = 100%]
Pressure (altimeter):29.97 inches Hg (1015.0 mb)
Winds:from the NW (310 degrees) at 8 MPH (7 knots; 3.6 m/s) gusting to 20 MPH (17 knots; 8.7 m/s)
Visibility:10 or more sm (16+ km)
Ceiling:1700 feet AGL
Clouds: overcast cloud deck at 1700 feet AGL
QC Flag:automated observation with no human augmentation
Text:KHLB 010835Z AUTO VRB06G12KT 10SM OVC017 03/03 A2997 RMK A01
Temperature: 3.0°C ( 37°F)
Dewpoint: 3.0°C ( 37°F) [RH = 100%]
Pressure (altimeter):29.97 inches Hg (1015.0 mb)
Winds:variable direction winds at 7 MPH (6 knots; 3.1 m/s) gusting to 14 MPH (12 knots; 6.2 m/s)
Visibility:10 or more sm (16+ km)
Ceiling:1700 feet AGL
Clouds: overcast cloud deck at 1700 feet AGL
QC Flag:automated observation with no human augmentation
Text:KHLB 010815Z AUTO 31008G13KT 270V070 10SM OVC018 03/03 A2996 RMK A01
Temperature: 3.0°C ( 37°F)
Dewpoint: 3.0°C ( 37°F) [RH = 100%]
Pressure (altimeter):29.96 inches Hg (1014.6 mb)
Winds:from the NW (310 degrees) at 9 MPH (8 knots; 4.1 m/s) gusting to 15 MPH (13 knots; 6.7 m/s)
Visibility:10 or more sm (16+ km)
Ceiling:1800 feet AGL
Clouds: overcast cloud deck at 1800 feet AGL
QC Flag:automated observation with no human augmentation
Text:KHLB 010755Z AUTO 31007G14KT 260V340 10SM OVC018 03/03 A2995 RMK A01
Temperature: 3.0°C ( 37°F)
Dewpoint: 3.0°C ( 37°F) [RH = 100%]
Pressure (altimeter):29.95 inches Hg (1014.3 mb)
Winds:from the NW (310 degrees) at 8 MPH (7 knots; 3.6 m/s) gusting to 16 MPH (14 knots; 7.2 m/s)
Visibility:10 or more sm (16+ km)
Ceiling:1800 feet AGL
Clouds: overcast cloud deck at 1800 feet AGL
QC Flag:automated observation with no human augmentation
Text:KHLB 010735Z AUTO 32011G18KT 300V020 10SM OVC017 04/03 A2995 RMK A01
Temperature: 4.0°C ( 39°F)
Dewpoint: 3.0°C ( 37°F) [RH = 93%]
Pressure (altimeter):29.95 inches Hg (1014.3 mb)
Winds:from the NW (320 degrees) at 13 MPH (11 knots; 5.7 m/s) gusting to 21 MPH (18 knots; 9.3 m/s)
Visibility:10 or more sm (16+ km)
Ceiling:1700 feet AGL
Clouds: overcast cloud deck at 1700 feet AGL
QC Flag:automated observation with no human augmentation
Text:KHLB 010715Z AUTO VRB05G15KT 10SM BKN016 OVC020 04/04 A2994 RMK A01
Temperature: 4.0°C ( 39°F)
Dewpoint: 4.0°C ( 39°F) [RH = 100%]
Pressure (altimeter):29.94 inches Hg (1014.0 mb)
Winds:variable direction winds at 6 MPH (5 knots; 2.6 m/s) gusting to 17 MPH (15 knots; 7.7 m/s)
Visibility:10 or more sm (16+ km)
Ceiling:1600 feet AGL
Clouds: broken clouds at 1600 feet AGL, overcast cloud deck at 2000 feet AGL
QC Flag:automated observation with no human augmentation
Text:KHLB 010655Z AUTO 31008G16KT 10SM BKN014 OVC020 04/04 A2994 RMK A01 P0001
Temperature: 4.0°C ( 39°F)
Dewpoint: 4.0°C ( 39°F) [RH = 100%]
Pressure (altimeter):29.94 inches Hg (1014.0 mb)
Winds:from the NW (310 degrees) at 9 MPH (8 knots; 4.1 m/s) gusting to 18 MPH (16 knots; 8.2 m/s)
Visibility:10 or more sm (16+ km)
Ceiling:1400 feet AGL
Clouds: broken clouds at 1400 feet AGL, overcast cloud deck at 2000 feet AGL
QC Flag:automated observation with no human augmentation
Text:KHLB 010635Z AUTO 32007KT 270V350 10SM OVC013 05/05 A2992 RMK A01
Temperature: 5.0°C ( 41°F)
Dewpoint: 5.0°C ( 41°F) [RH = 100%]
Pressure (altimeter):29.92 inches Hg (1013.3 mb)
Winds:from the NW (320 degrees) at 8 MPH (7 knots; 3.6 m/s)
Visibility:10 or more sm (16+ km)
Ceiling:1300 feet AGL
Clouds: overcast cloud deck at 1300 feet AGL
QC Flag:automated observation with no human augmentation
Text:KHLB 010615Z AUTO 29007G14KT 260V320 10SM BKN013 BKN022 OVC120 06/05 A2991 RMK A01
Temperature: 6.0°C ( 43°F)
Dewpoint: 5.0°C ( 41°F) [RH = 93%]
Pressure (altimeter):29.91 inches Hg (1013.0 mb)
Winds:from the WNW (290 degrees) at 8 MPH (7 knots; 3.6 m/s) gusting to 16 MPH (14 knots; 7.2 m/s)
Visibility:10 or more sm (16+ km)
Ceiling:1300 feet AGL
Clouds: broken clouds at 1300 feet AGL, broken clouds at 2200 feet AGL, overcast cloud deck at 12000 feet AGL
QC Flag:automated observation with no human augmentation
Text:KHLB 010555Z AUTO 31009G16KT 290V350 10SM BKN050 BKN070 OVC120 06/06 A2988 RMK A01
Temperature: 6.0°C ( 43°F)
Dewpoint: 6.0°C ( 43°F) [RH = 100%]
Pressure (altimeter):29.88 inches Hg (1011.9 mb)
Winds:from the NW (310 degrees) at 10 MPH (9 knots; 4.6 m/s) gusting to 18 MPH (16 knots; 8.2 m/s)
Visibility:10 or more sm (16+ km)
Ceiling:5000 feet AGL
Clouds: broken clouds at 5000 feet AGL, broken clouds at 7000 feet AGL, overcast cloud deck at 12000 feet AGL
QC Flag:automated observation with no human augmentation
Text:KHLB 010535Z AUTO 31008G14KT 290V010 10SM OVC046 07/06 A2986 RMK A01
Temperature: 7.0°C ( 45°F)
Dewpoint: 6.0°C ( 43°F) [RH = 93%]
Pressure (altimeter):29.86 inches Hg (1011.3 mb)
Winds:from the NW (310 degrees) at 9 MPH (8 knots; 4.1 m/s) gusting to 16 MPH (14 knots; 7.2 m/s)
Visibility:10 or more sm (16+ km)
Ceiling:4600 feet AGL
Clouds: overcast cloud deck at 4600 feet AGL
QC Flag:automated observation with no human augmentation
Text:KHLB 010515Z AUTO 30006G13KT 10SM FEW021 OVC040 08/08 A2988 RMK A01
Temperature: 8.0°C ( 46°F)
Dewpoint: 8.0°C ( 46°F) [RH = 100%]
Pressure (altimeter):29.88 inches Hg (1011.9 mb)
Winds:from the WNW (300 degrees) at 7 MPH (6 knots; 3.1 m/s) gusting to 15 MPH (13 knots; 6.7 m/s)
Visibility:10 or more sm (16+ km)
Ceiling:4000 feet AGL
Clouds: few clouds at 2100 feet AGL, overcast cloud deck at 4000 feet AGL
QC Flag:automated observation with no human augmentation
Text:KHLB 010455Z AUTO 32006G12KT 10SM FEW020 OVC036 09/07 A2987 RMK A01
Temperature: 9.0°C ( 48°F)
Dewpoint: 7.0°C ( 45°F) [RH = 87%]
Pressure (altimeter):29.87 inches Hg (1011.6 mb)
Winds:from the NW (320 degrees) at 7 MPH (6 knots; 3.1 m/s) gusting to 14 MPH (12 knots; 6.2 m/s)
Visibility:10 or more sm (16+ km)
Ceiling:3600 feet AGL
Clouds: few clouds at 2000 feet AGL, overcast cloud deck at 3600 feet AGL
QC Flag:automated observation with no human augmentation
Text:KHLB 010435Z AUTO VRB06KT 10SM FEW022 FEW026 OVC035 09/08 A2985 RMK A01
Temperature: 9.0°C ( 48°F)
Dewpoint: 8.0°C ( 46°F) [RH = 93%]
Pressure (altimeter):29.85 inches Hg (1010.9 mb)
Winds:variable direction winds at 7 MPH (6 knots; 3.1 m/s)
Visibility:10 or more sm (16+ km)
Ceiling:3500 feet AGL
Clouds: few clouds at 2200 feet AGL, few clouds at 2600 feet AGL, overcast cloud deck at 3500 feet AGL
QC Flag:automated observation with no human augmentation
Text:KHLB 010415Z AUTO VRB06G13KT 10SM FEW026 OVC033 09/07 A2985 RMK A01
Temperature: 9.0°C ( 48°F)
Dewpoint: 7.0°C ( 45°F) [RH = 87%]
Pressure (altimeter):29.85 inches Hg (1010.9 mb)
Winds:variable direction winds at 7 MPH (6 knots; 3.1 m/s) gusting to 15 MPH (13 knots; 6.7 m/s)
Visibility:10 or more sm (16+ km)
Ceiling:3300 feet AGL
Clouds: few clouds at 2600 feet AGL, overcast cloud deck at 3300 feet AGL
QC Flag:automated observation with no human augmentation
Text:KHLB 010355Z AUTO 30009G15KT 250V330 10SM FEW021 SCT026 OVC032 10/07 A2985 RMK A01 P0001
Temperature: 10.0°C ( 50°F)
Dewpoint: 7.0°C ( 45°F) [RH = 82%]
Pressure (altimeter):29.85 inches Hg (1010.9 mb)
Winds:from the WNW (300 degrees) at 10 MPH (9 knots; 4.6 m/s) gusting to 17 MPH (15 knots; 7.7 m/s)
Visibility:10 or more sm (16+ km)
Ceiling:3200 feet AGL
Clouds: few clouds at 2100 feet AGL, scattered clouds at 2600 feet AGL, overcast cloud deck at 3200 feet AGL
QC Flag:automated observation with no human augmentation
Text:KHLB 010335Z AUTO 32006G13KT 10SM FEW009 SCT014 BKN020 10/10 A2983 RMK A01
Temperature: 10.0°C ( 50°F)
Dewpoint: 10.0°C ( 50°F) [RH = 100%]
Pressure (altimeter):29.83 inches Hg (1010.2 mb)
Winds:from the NW (320 degrees) at 7 MPH (6 knots; 3.1 m/s) gusting to 15 MPH (13 knots; 6.7 m/s)
Visibility:10 or more sm (16+ km)
Ceiling:2000 feet AGL
Clouds: few clouds at 900 feet AGL, scattered clouds at 1400 feet AGL, broken clouds at 2000 feet AGL
QC Flag:automated observation with no human augmentation
Text:KHLB 010315Z AUTO 32010G20KT 8SM BKN008 OVC011 11/11 A2984 RMK A01
Temperature: 11.0°C ( 52°F)
Dewpoint: 11.0°C ( 52°F) [RH = 100%]
Pressure (altimeter):29.84 inches Hg (1010.6 mb)
Winds:from the NW (320 degrees) at 12 MPH (10 knots; 5.1 m/s) gusting to 23 MPH (20 knots; 10.3 m/s)
Visibility: 8 sm ( 13 km)
Ceiling:800 feet AGL
Clouds: broken clouds at 800 feet AGL, overcast cloud deck at 1100 feet AGL
QC Flag:automated observation with no human augmentation
Text:KHLB 010255Z AUTO 29004KT 3SM BR BKN013 BKN040 OVC065 13/13 A2982 RMK A01 P0007
Temperature: 13.0°C ( 55°F)
Dewpoint: 13.0°C ( 55°F) [RH = 100%]
Pressure (altimeter):29.82 inches Hg (1009.9 mb)
Winds:from the WNW (290 degrees) at 5 MPH (4 knots; 2.1 m/s)
Visibility: 3 sm ( 5 km)
Ceiling:1300 feet AGL
Clouds: broken clouds at 1300 feet AGL, broken clouds at 4000 feet AGL, overcast cloud deck at 6500 feet AGL
Weather:BR (mist)
QC Flag:automated observation with no human augmentation
Text:KHLB 010235Z AUTO 19006KT 5SM BR SCT008 BKN055 OVC065 13/13 A2980 RMK A01
Temperature: 13.0°C ( 55°F)
Dewpoint: 13.0°C ( 55°F) [RH = 100%]
Pressure (altimeter):29.80 inches Hg (1009.2 mb)
Winds:from the S (190 degrees) at 7 MPH (6 knots; 3.1 m/s)
Visibility: 5 sm ( 8 km)
Ceiling:5500 feet AGL
Clouds: scattered clouds at 800 feet AGL, broken clouds at 5500 feet AGL, overcast cloud deck at 6500 feet AGL
Weather:BR (mist)
QC Flag:automated observation with no human augmentation
Text:KHLB 010215Z AUTO VRB06G13KT 5SM BR BKN009 BKN019 OVC035 14/14 A2983 RMK A01
Temperature: 14.0°C ( 57°F)
Dewpoint: 14.0°C ( 57°F) [RH = 100%]
Pressure (altimeter):29.83 inches Hg (1010.2 mb)
Winds:variable direction winds at 7 MPH (6 knots; 3.1 m/s) gusting to 15 MPH (13 knots; 6.7 m/s)
Visibility: 5 sm ( 8 km)
Ceiling:900 feet AGL
Clouds: broken clouds at 900 feet AGL, broken clouds at 1900 feet AGL, overcast cloud deck at 3500 feet AGL
Weather:BR (mist)
QC Flag:automated observation with no human augmentation
Text:KHLB 010155Z AUTO VRB04KT 5SM BR FEW011 SCT020 BKN025 14/14 A2983 RMK A01 P0003
Temperature: 14.0°C ( 57°F)
Dewpoint: 14.0°C ( 57°F) [RH = 100%]
Pressure (altimeter):29.83 inches Hg (1010.2 mb)
Winds:variable direction winds at 5 MPH (4 knots; 2.1 m/s)
Visibility: 5 sm ( 8 km)
Ceiling:2500 feet AGL
Clouds: few clouds at 1100 feet AGL, scattered clouds at 2000 feet AGL, broken clouds at 2500 feet AGL
Weather:BR (mist)
QC Flag:automated observation with no human augmentation
Text:KHLB 010135Z AUTO VRB04KT 6SM BR SCT018 BKN026 OVC070 14/14 A2980 RMK A01
Temperature: 14.0°C ( 57°F)
Dewpoint: 14.0°C ( 57°F) [RH = 100%]
Pressure (altimeter):29.80 inches Hg (1009.2 mb)
Winds:variable direction winds at 5 MPH (4 knots; 2.1 m/s)
Visibility: 6 sm ( 10 km)
Ceiling:2600 feet AGL
Clouds: scattered clouds at 1800 feet AGL, broken clouds at 2600 feet AGL, overcast cloud deck at 7000 feet AGL
Weather:BR (mist)
QC Flag:automated observation with no human augmentation
Text:KHLB 010115Z AUTO 00000KT 5SM BR SCT018 BKN026 OVC050 14/14 A2981 RMK A01
Temperature: 14.0°C ( 57°F)
Dewpoint: 14.0°C ( 57°F) [RH = 100%]
Pressure (altimeter):29.81 inches Hg (1009.6 mb)
Winds:calm
Visibility: 5 sm ( 8 km)
Ceiling:2600 feet AGL
Clouds: scattered clouds at 1800 feet AGL, broken clouds at 2600 feet AGL, overcast cloud deck at 5000 feet AGL
Weather:BR (mist)
QC Flag:automated observation with no human augmentation
Text:KHLB 010055Z AUTO 00000KT 9SM BKN026 BKN037 OVC055 14/14 A2981 RMK A01
Temperature: 14.0°C ( 57°F)
Dewpoint: 14.0°C ( 57°F) [RH = 100%]
Pressure (altimeter):29.81 inches Hg (1009.6 mb)
Winds:calm
Visibility: 9 sm ( 14 km)
Ceiling:2600 feet AGL
Clouds: broken clouds at 2600 feet AGL, broken clouds at 3700 feet AGL, overcast cloud deck at 5500 feet AGL
QC Flag:automated observation with no human augmentation
Text:KHLB 010035Z AUTO 00000KT 8SM SCT023 BKN028 OVC035 14/14 A2981 RMK A01
Temperature: 14.0°C ( 57°F)
Dewpoint: 14.0°C ( 57°F) [RH = 100%]
Pressure (altimeter):29.81 inches Hg (1009.6 mb)
Winds:calm
Visibility: 8 sm ( 13 km)
Ceiling:2800 feet AGL
Clouds: scattered clouds at 2300 feet AGL, broken clouds at 2800 feet AGL, overcast cloud deck at 3500 feet AGL
QC Flag:automated observation with no human augmentation
Text:KHLB 010015Z AUTO 00000KT 9SM SCT022 BKN036 OVC075 14/14 A2980 RMK A01
Temperature: 14.0°C ( 57°F)
Dewpoint: 14.0°C ( 57°F) [RH = 100%]
Pressure (altimeter):29.80 inches Hg (1009.2 mb)
Winds:calm
Visibility: 9 sm ( 14 km)
Ceiling:3600 feet AGL
Clouds: scattered clouds at 2200 feet AGL, broken clouds at 3600 feet AGL, overcast cloud deck at 7500 feet AGL
QC Flag:automated observation with no human augmentation
Text:KHLB 282355Z AUTO VRB03KT 7SM FEW009 SCT025 BKN048 14/14 A2980 RMK A01
Temperature: 14.0°C ( 57°F)
Dewpoint: 14.0°C ( 57°F) [RH = 100%]
Pressure (altimeter):29.80 inches Hg (1009.2 mb)
Winds:variable direction winds at 3 MPH (3 knots; 1.5 m/s)
Visibility: 7 sm ( 11 km)
Ceiling:4800 feet AGL
Clouds: few clouds at 900 feet AGL, scattered clouds at 2500 feet AGL, broken clouds at 4800 feet AGL
QC Flag:automated observation with no human augmentation
Text:KHLB 282335Z AUTO 19005KT 9SM FEW012 SCT043 BKN055 14/14 A2979 RMK A01
Temperature: 14.0°C ( 57°F)
Dewpoint: 14.0°C ( 57°F) [RH = 100%]
Pressure (altimeter):29.79 inches Hg (1008.9 mb)
Winds:from the S (190 degrees) at 6 MPH (5 knots; 2.6 m/s)
Visibility: 9 sm ( 14 km)
Ceiling:5500 feet AGL
Clouds: few clouds at 1200 feet AGL, scattered clouds at 4300 feet AGL, broken clouds at 5500 feet AGL
QC Flag:automated observation with no human augmentation
Text:KHLB 282315Z AUTO 00000KT 10SM SCT016 BKN048 OVC085 15/15 A2978 RMK A01
Temperature: 15.0°C ( 59°F)
Dewpoint: 15.0°C ( 59°F) [RH = 100%]
Pressure (altimeter):29.78 inches Hg (1008.5 mb)
Winds:calm
Visibility:10 or more sm (16+ km)
Ceiling:4800 feet AGL
Clouds: scattered clouds at 1600 feet AGL, broken clouds at 4800 feet AGL, overcast cloud deck at 8500 feet AGL
QC Flag:automated observation with no human augmentation
Text:KHLB 282255Z AUTO VRB05KT 10SM BKN014 OVC019 15/15 A2978 RMK A01
Temperature: 15.0°C ( 59°F)
Dewpoint: 15.0°C ( 59°F) [RH = 100%]
Pressure (altimeter):29.78 inches Hg (1008.5 mb)
Winds:variable direction winds at 6 MPH (5 knots; 2.6 m/s)
Visibility:10 or more sm (16+ km)
Ceiling:1400 feet AGL
Clouds: broken clouds at 1400 feet AGL, overcast cloud deck at 1900 feet AGL
QC Flag:automated observation with no human augmentation
Text:KHLB 282235Z AUTO 00000KT 10SM OVC013 15/15 A2977 RMK A01
Temperature: 15.0°C ( 59°F)
Dewpoint: 15.0°C ( 59°F) [RH = 100%]
Pressure (altimeter):29.77 inches Hg (1008.2 mb)
Winds:calm
Visibility:10 or more sm (16+ km)
Ceiling:1300 feet AGL
Clouds: overcast cloud deck at 1300 feet AGL
QC Flag:automated observation with no human augmentation
Text:KHLB 282215Z AUTO 00000G10KT 10SM OVC013 15/15 A2977 RMK A01
Temperature: 15.0°C ( 59°F)
Dewpoint: 15.0°C ( 59°F) [RH = 100%]
Pressure (altimeter):29.77 inches Hg (1008.2 mb)
Winds:calm
Visibility:10 or more sm (16+ km)
Ceiling:1300 feet AGL
Clouds: overcast cloud deck at 1300 feet AGL
QC Flag:automated observation with no human augmentation
Text:KHLB 282155Z AUTO VRB04KT 10SM OVC012 15/15 A2977 RMK A01
Temperature: 15.0°C ( 59°F)
Dewpoint: 15.0°C ( 59°F) [RH = 100%]
Pressure (altimeter):29.77 inches Hg (1008.2 mb)
Winds:variable direction winds at 5 MPH (4 knots; 2.1 m/s)
Visibility:10 or more sm (16+ km)
Ceiling:1200 feet AGL
Clouds: overcast cloud deck at 1200 feet AGL
QC Flag:automated observation with no human augmentation
Text:KHLB 282135Z AUTO VRB04G12KT 10SM OVC013 15/15 A2976 RMK A01
Temperature: 15.0°C ( 59°F)
Dewpoint: 15.0°C ( 59°F) [RH = 100%]
Pressure (altimeter):29.76 inches Hg (1007.9 mb)
Winds:variable direction winds at 5 MPH (4 knots; 2.1 m/s) gusting to 14 MPH (12 knots; 6.2 m/s)
Visibility:10 or more sm (16+ km)
Ceiling:1300 feet AGL
Clouds: overcast cloud deck at 1300 feet AGL
QC Flag:automated observation with no human augmentation
Text:KHLB 282115Z AUTO 00000KT 10SM OVC012 15/15 A2977 RMK A01
Temperature: 15.0°C ( 59°F)
Dewpoint: 15.0°C ( 59°F) [RH = 100%]
Pressure (altimeter):29.77 inches Hg (1008.2 mb)
Winds:calm
Visibility:10 or more sm (16+ km)
Ceiling:1200 feet AGL
Clouds: overcast cloud deck at 1200 feet AGL
QC Flag:automated observation with no human augmentation
Text:KHLB 282055Z AUTO VRB03G11KT 10SM OVC013 15/15 A2977 RMK A01
Temperature: 15.0°C ( 59°F)
Dewpoint: 15.0°C ( 59°F) [RH = 100%]
Pressure (altimeter):29.77 inches Hg (1008.2 mb)
Winds:variable direction winds at 3 MPH (3 knots; 1.5 m/s) gusting to 13 MPH (11 knots; 5.7 m/s)
Visibility:10 or more sm (16+ km)
Ceiling:1300 feet AGL
Clouds: overcast cloud deck at 1300 feet AGL
QC Flag:automated observation with no human augmentation
Text:KHLB 282035Z AUTO VRB04KT 10SM OVC012 15/15 A2978 RMK A01
Temperature: 15.0°C ( 59°F)
Dewpoint: 15.0°C ( 59°F) [RH = 100%]
Pressure (altimeter):29.78 inches Hg (1008.5 mb)
Winds:variable direction winds at 5 MPH (4 knots; 2.1 m/s)
Visibility:10 or more sm (16+ km)
Ceiling:1200 feet AGL
Clouds: overcast cloud deck at 1200 feet AGL
QC Flag:automated observation with no human augmentation
Text:KHLB 282015Z AUTO VRB04G12KT 10SM OVC011 15/15 A2978 RMK A01
Temperature: 15.0°C ( 59°F)
Dewpoint: 15.0°C ( 59°F) [RH = 100%]
Pressure (altimeter):29.78 inches Hg (1008.5 mb)
Winds:variable direction winds at 5 MPH (4 knots; 2.1 m/s) gusting to 14 MPH (12 knots; 6.2 m/s)
Visibility:10 or more sm (16+ km)
Ceiling:1100 feet AGL
Clouds: overcast cloud deck at 1100 feet AGL
QC Flag:automated observation with no human augmentation
Text:KHLB 281955Z AUTO VRB04G12KT 10SM OVC009 15/15 A2977 RMK A01
Temperature: 15.0°C ( 59°F)
Dewpoint: 15.0°C ( 59°F) [RH = 100%]
Pressure (altimeter):29.77 inches Hg (1008.2 mb)
Winds:variable direction winds at 5 MPH (4 knots; 2.1 m/s) gusting to 14 MPH (12 knots; 6.2 m/s)
Visibility:10 or more sm (16+ km)
Ceiling:900 feet AGL
Clouds: overcast cloud deck at 900 feet AGL
QC Flag:automated observation with no human augmentation
Text:KHLB 281935Z AUTO VRB04G12KT 10SM OVC008 15/15 A2978 RMK A01
Temperature: 15.0°C ( 59°F)
Dewpoint: 15.0°C ( 59°F) [RH = 100%]
Pressure (altimeter):29.78 inches Hg (1008.5 mb)
Winds:variable direction winds at 5 MPH (4 knots; 2.1 m/s) gusting to 14 MPH (12 knots; 6.2 m/s)
Visibility:10 or more sm (16+ km)
Ceiling:800 feet AGL
Clouds: overcast cloud deck at 800 feet AGL
QC Flag:automated observation with no human augmentation
Text:KHLB 281915Z AUTO VRB07G12KT 10SM OVC008 15/15 A2977 RMK A01
Temperature: 15.0°C ( 59°F)
Dewpoint: 15.0°C ( 59°F) [RH = 100%]
Pressure (altimeter):29.77 inches Hg (1008.2 mb)
Winds:variable direction winds at 8 MPH (7 knots; 3.6 m/s) gusting to 14 MPH (12 knots; 6.2 m/s)
Visibility:10 or more sm (16+ km)
Ceiling:800 feet AGL
Clouds: overcast cloud deck at 800 feet AGL
QC Flag:automated observation with no human augmentation
Text:KHLB 281855Z AUTO 18007KT 10SM BKN008 BKN012 14/14 A2978 RMK A01
Temperature: 14.0°C ( 57°F)
Dewpoint: 14.0°C ( 57°F) [RH = 100%]
Pressure (altimeter):29.78 inches Hg (1008.5 mb)
Winds:from the S (180 degrees) at 8 MPH (7 knots; 3.6 m/s)
Visibility:10 or more sm (16+ km)
Ceiling:800 feet AGL
Clouds: broken clouds at 800 feet AGL, broken clouds at 1200 feet AGL
QC Flag:automated observation with no human augmentation
Text:KHLB 281835Z AUTO 15009KT 10SM BKN006 BKN009 BKN013 14/14 A2978 RMK A01
Temperature: 14.0°C ( 57°F)
Dewpoint: 14.0°C ( 57°F) [RH = 100%]
Pressure (altimeter):29.78 inches Hg (1008.5 mb)
Winds:from the SSE (150 degrees) at 10 MPH (9 knots; 4.6 m/s)
Visibility:10 or more sm (16+ km)
Ceiling:600 feet AGL
Clouds: broken clouds at 600 feet AGL, broken clouds at 900 feet AGL, broken clouds at 1300 feet AGL
QC Flag:automated observation with no human augmentation
Text:KHLB 281815Z AUTO 14009KT 10SM BKN006 BKN014 OVC018 14/14 A2979 RMK A01
Temperature: 14.0°C ( 57°F)
Dewpoint: 14.0°C ( 57°F) [RH = 100%]
Pressure (altimeter):29.79 inches Hg (1008.9 mb)
Winds:from the SE (140 degrees) at 10 MPH (9 knots; 4.6 m/s)
Visibility:10 or more sm (16+ km)
Ceiling:600 feet AGL
Clouds: broken clouds at 600 feet AGL, broken clouds at 1400 feet AGL, overcast cloud deck at 1800 feet AGL
QC Flag:automated observation with no human augmentation
Text:KHLB 281755Z AUTO 12006KT 10SM BKN007 BKN018 OVC029 13/13 A2981 RMK A01
Temperature: 13.0°C ( 55°F)
Dewpoint: 13.0°C ( 55°F) [RH = 100%]
Pressure (altimeter):29.81 inches Hg (1009.6 mb)
Winds:from the ESE (120 degrees) at 7 MPH (6 knots; 3.1 m/s)
Visibility:10 or more sm (16+ km)
Ceiling:700 feet AGL
Clouds: broken clouds at 700 feet AGL, broken clouds at 1800 feet AGL, overcast cloud deck at 2900 feet AGL
QC Flag:automated observation with no human augmentation
Text:KHLB 281735Z AUTO 12010KT 10SM SCT008 OVC028 13/13 A2982 RMK A01
Temperature: 13.0°C ( 55°F)
Dewpoint: 13.0°C ( 55°F) [RH = 100%]
Pressure (altimeter):29.82 inches Hg (1009.9 mb)
Winds:from the ESE (120 degrees) at 12 MPH (10 knots; 5.1 m/s)
Visibility:10 or more sm (16+ km)
Ceiling:2800 feet AGL
Clouds: scattered clouds at 800 feet AGL, overcast cloud deck at 2800 feet AGL
QC Flag:automated observation with no human augmentation
Text:KHLB 281715Z AUTO 12008KT 10SM SCT008 BKN026 OVC031 13/13 A2984 RMK A01
Temperature: 13.0°C ( 55°F)
Dewpoint: 13.0°C ( 55°F) [RH = 100%]
Pressure (altimeter):29.84 inches Hg (1010.6 mb)
Winds:from the ESE (120 degrees) at 9 MPH (8 knots; 4.1 m/s)
Visibility:10 or more sm (16+ km)
Ceiling:2600 feet AGL
Clouds: scattered clouds at 800 feet AGL, broken clouds at 2600 feet AGL, overcast cloud deck at 3100 feet AGL
QC Flag:automated observation with no human augmentation
Text:KHLB 281655Z AUTO 11008KT 10SM SCT008 OVC029 13/13 A2984 RMK A01
Temperature: 13.0°C ( 55°F)
Dewpoint: 13.0°C ( 55°F) [RH = 100%]
Pressure (altimeter):29.84 inches Hg (1010.6 mb)
Winds:from the ESE (110 degrees) at 9 MPH (8 knots; 4.1 m/s)
Visibility:10 or more sm (16+ km)
Ceiling:2900 feet AGL
Clouds: scattered clouds at 800 feet AGL, overcast cloud deck at 2900 feet AGL
QC Flag:automated observation with no human augmentation
Text:KHLB 281635Z AUTO 10008KT 10SM FEW006 BKN030 BKN038 12/12 A2983 RMK A01
Temperature: 12.0°C ( 54°F)
Dewpoint: 12.0°C ( 54°F) [RH = 100%]
Pressure (altimeter):29.83 inches Hg (1010.2 mb)
Winds:from the E (100 degrees) at 9 MPH (8 knots; 4.1 m/s)
Visibility:10 or more sm (16+ km)
Ceiling:3000 feet AGL
Clouds: few clouds at 600 feet AGL, broken clouds at 3000 feet AGL, broken clouds at 3800 feet AGL
QC Flag:automated observation with no human augmentation
Text:KHLB 281615Z AUTO 11010KT 9SM FEW006 SCT037 12/12 A2983 RMK A01
Temperature: 12.0°C ( 54°F)
Dewpoint: 12.0°C ( 54°F) [RH = 100%]
Pressure (altimeter):29.83 inches Hg (1010.2 mb)
Winds:from the ESE (110 degrees) at 12 MPH (10 knots; 5.1 m/s)
Visibility: 9 sm ( 14 km)
Ceiling:at least 12,000 feet AGL
Clouds: few clouds at 600 feet AGL, scattered clouds at 3700 feet AGL
QC Flag:automated observation with no human augmentation
Text:KHLB 281555Z AUTO 09008KT 4SM BR FEW027 FEW032 FEW041 12/12 A2986 RMK A01 P0006
Temperature: 12.0°C ( 54°F)
Dewpoint: 12.0°C ( 54°F) [RH = 100%]
Pressure (altimeter):29.86 inches Hg (1011.3 mb)
Winds:from the E (90 degrees) at 9 MPH (8 knots; 4.1 m/s)
Visibility: 4 sm ( 6 km)
Ceiling:at least 12,000 feet AGL
Clouds: few clouds at 2700 feet AGL, few clouds at 3200 feet AGL, few clouds at 4100 feet AGL
Weather:BR (mist)
QC Flag:automated observation with no human augmentation
Text:KHLB 281535Z AUTO 11005KT 3SM BR FEW033 SCT041 SCT049 12/12 A2987 RMK A01
Temperature: 12.0°C ( 54°F)
Dewpoint: 12.0°C ( 54°F) [RH = 100%]
Pressure (altimeter):29.87 inches Hg (1011.6 mb)
Winds:from the ESE (110 degrees) at 6 MPH (5 knots; 2.6 m/s)
Visibility: 3 sm ( 5 km)
Ceiling:at least 12,000 feet AGL
Clouds: few clouds at 3300 feet AGL, scattered clouds at 4100 feet AGL, scattered clouds at 4900 feet AGL
Weather:BR (mist)
QC Flag:automated observation with no human augmentation
Text:KHLB 281515Z AUTO 12007KT 4SM BR SCT048 BKN055 12/12 A2987 RMK A01
Temperature: 12.0°C ( 54°F)
Dewpoint: 12.0°C ( 54°F) [RH = 100%]
Pressure (altimeter):29.87 inches Hg (1011.6 mb)
Winds:from the ESE (120 degrees) at 8 MPH (7 knots; 3.6 m/s)
Visibility: 4 sm ( 6 km)
Ceiling:5500 feet AGL
Clouds: scattered clouds at 4800 feet AGL, broken clouds at 5500 feet AGL
Weather:BR (mist)
QC Flag:automated observation with no human augmentation
Text:KHLB 281455Z AUTO 11008KT 4SM BR FEW034 FEW040 BKN048 11/11 A2988 RMK A01 P0010
Temperature: 11.0°C ( 52°F)
Dewpoint: 11.0°C ( 52°F) [RH = 100%]
Pressure (altimeter):29.88 inches Hg (1011.9 mb)
Winds:from the ESE (110 degrees) at 9 MPH (8 knots; 4.1 m/s)
Visibility: 4 sm ( 6 km)
Ceiling:4800 feet AGL
Clouds: few clouds at 3400 feet AGL, few clouds at 4000 feet AGL, broken clouds at 4800 feet AGL
Weather:BR (mist)
QC Flag:automated observation with no human augmentation
Text:KHLB 281435Z AUTO 08005KT 5SM BR FEW004 SCT034 BKN046 11/11 A2989 RMK A01
Temperature: 11.0°C ( 52°F)
Dewpoint: 11.0°C ( 52°F) [RH = 100%]
Pressure (altimeter):29.89 inches Hg (1012.3 mb)
Winds:from the E (80 degrees) at 6 MPH (5 knots; 2.6 m/s)
Visibility: 5 sm ( 8 km)
Ceiling:4600 feet AGL
Clouds: few clouds at 400 feet AGL, scattered clouds at 3400 feet AGL, broken clouds at 4600 feet AGL
Weather:BR (mist)
QC Flag:automated observation with no human augmentation
Text:KHLB 281415Z AUTO 00000KT 2SM BR SCT004 BKN032 OVC046 11/11 A2991 RMK A01
Temperature: 11.0°C ( 52°F)
Dewpoint: 11.0°C ( 52°F) [RH = 100%]
Pressure (altimeter):29.91 inches Hg (1013.0 mb)
Winds:calm
Visibility: 2.00 sm ( 3.22 km)
Ceiling:3200 feet AGL
Clouds: scattered clouds at 400 feet AGL, broken clouds at 3200 feet AGL, overcast cloud deck at 4600 feet AGL
Weather:BR (mist)
QC Flag:automated observation with no human augmentation
Text:KHLB 281355Z AUTO 00000KT 1 1/2SM BR BKN004 OVC035 11/11 A2991 RMK A01 P0010
Temperature: 11.0°C ( 52°F)
Dewpoint: 11.0°C ( 52°F) [RH = 100%]
Pressure (altimeter):29.91 inches Hg (1013.0 mb)
Winds:calm
Visibility: 1.50 sm ( 2.41 km)
Ceiling:400 feet AGL
Clouds: broken clouds at 400 feet AGL, overcast cloud deck at 3500 feet AGL
Weather:BR (mist)
QC Flag:automated observation with no human augmentation
Text:KHLB 281335Z AUTO 09008KT 3SM BR SCT003 OVC035 11/11 A2988 RMK A01
Temperature: 11.0°C ( 52°F)
Dewpoint: 11.0°C ( 52°F) [RH = 100%]
Pressure (altimeter):29.88 inches Hg (1011.9 mb)
Winds:from the E (90 degrees) at 9 MPH (8 knots; 4.1 m/s)
Visibility: 3 sm ( 5 km)
Ceiling:3500 feet AGL
Clouds: scattered clouds at 300 feet AGL, overcast cloud deck at 3500 feet AGL
Weather:BR (mist)
QC Flag:automated observation with no human augmentation
Text:KHLB 281315Z AUTO 08007KT 3SM BR SCT003 BKN026 OVC049 11/11 A2989 RMK A01
Temperature: 11.0°C ( 52°F)
Dewpoint: 11.0°C ( 52°F) [RH = 100%]
Pressure (altimeter):29.89 inches Hg (1012.3 mb)
Winds:from the E (80 degrees) at 8 MPH (7 knots; 3.6 m/s)
Visibility: 3 sm ( 5 km)
Ceiling:2600 feet AGL
Clouds: scattered clouds at 300 feet AGL, broken clouds at 2600 feet AGL, overcast cloud deck at 4900 feet AGL
Weather:BR (mist)
QC Flag:automated observation with no human augmentation
Text:KHLB 281255Z AUTO 00000KT 1 1/4SM BR OVC003 11/11 A2992 RMK A01 P0014
Temperature: 11.0°C ( 52°F)
Dewpoint: 11.0°C ( 52°F) [RH = 100%]
Pressure (altimeter):29.92 inches Hg (1013.3 mb)
Winds:calm
Visibility: 1.25 sm ( 2.01 km)
Ceiling:300 feet AGL
Clouds: overcast cloud deck at 300 feet AGL
Weather:BR (mist)
QC Flag:automated observation with no human augmentation
Text:KHLB 281235Z AUTO 10004KT 2 1/2SM BR SCT004 BKN028 OVC035 11/11 A2989 RMK A01
Temperature: 11.0°C ( 52°F)
Dewpoint: 11.0°C ( 52°F) [RH = 100%]
Pressure (altimeter):29.89 inches Hg (1012.3 mb)
Winds:from the E (100 degrees) at 5 MPH (4 knots; 2.1 m/s)
Visibility: 2.50 sm ( 4.02 km)
Ceiling:2800 feet AGL
Clouds: scattered clouds at 400 feet AGL, broken clouds at 2800 feet AGL, overcast cloud deck at 3500 feet AGL
Weather:BR (mist)
QC Flag:automated observation with no human augmentation
Text:KHLB 281215Z AUTO 10006KT 4SM BR FEW004 SCT018 OVC030 11/11 A2988 RMK A01
Temperature: 11.0°C ( 52°F)
Dewpoint: 11.0°C ( 52°F) [RH = 100%]
Pressure (altimeter):29.88 inches Hg (1011.9 mb)
Winds:from the E (100 degrees) at 7 MPH (6 knots; 3.1 m/s)
Visibility: 4 sm ( 6 km)
Ceiling:3000 feet AGL
Clouds: few clouds at 400 feet AGL, scattered clouds at 1800 feet AGL, overcast cloud deck at 3000 feet AGL
Weather:BR (mist)
QC Flag:automated observation with no human augmentation
Text:KHLB 281155Z AUTO 14004KT 3SM BR FEW019 OVC032 11/11 A2989 RMK A01 P0013
Temperature: 11.0°C ( 52°F)
Dewpoint: 11.0°C ( 52°F) [RH = 100%]
Pressure (altimeter):29.89 inches Hg (1012.3 mb)
Winds:from the SE (140 degrees) at 5 MPH (4 knots; 2.1 m/s)
Visibility: 3 sm ( 5 km)
Ceiling:3200 feet AGL
Clouds: few clouds at 1900 feet AGL, overcast cloud deck at 3200 feet AGL
Weather:BR (mist)
QC Flag:automated observation with no human augmentation
Text:KHLB 281135Z AUTO 13005KT 1 3/4SM BR BKN003 OVC033 11/11 A2989 RMK A01
Temperature: 11.0°C ( 52°F)
Dewpoint: 11.0°C ( 52°F) [RH = 100%]
Pressure (altimeter):29.89 inches Hg (1012.3 mb)
Winds:from the SE (130 degrees) at 6 MPH (5 knots; 2.6 m/s)
Visibility: 1.75 sm ( 2.82 km)
Ceiling:300 feet AGL
Clouds: broken clouds at 300 feet AGL, overcast cloud deck at 3300 feet AGL
Weather:BR (mist)
QC Flag:automated observation with no human augmentation
Text:KHLB 281115Z AUTO 11003KT 1SM BR OVC002 10/10 A2990 RMK A01
Temperature: 10.0°C ( 50°F)
Dewpoint: 10.0°C ( 50°F) [RH = 100%]
Pressure (altimeter):29.90 inches Hg (1012.6 mb)
Winds:from the ESE (110 degrees) at 3 MPH (3 knots; 1.5 m/s)
Visibility: 1.00 sm ( 1.61 km)
Ceiling:200 feet AGL
Clouds: overcast cloud deck at 200 feet AGL
Weather:BR (mist)
QC Flag:automated observation with no human augmentation